createdAt,value
2022-10-20T00:00:28.394Z,16.36
2022-10-20T00:02:55.817Z,16.40
2022-10-20T00:05:23.182Z,16.42
2022-10-20T00:07:50.509Z,16.41
2022-10-20T00:10:17.934Z,16.36
2022-10-20T00:12:45.251Z,16.39
2022-10-20T00:15:14.579Z,16.52
2022-10-20T00:17:41.859Z,16.60
2022-10-20T00:20:09.822Z,16.67
2022-10-20T00:22:37.534Z,16.66
2022-10-20T00:25:05.383Z,16.61
2022-10-20T00:27:32.701Z,16.63
2022-10-20T00:30:00.053Z,16.62
2022-10-20T00:32:27.613Z,16.51
2022-10-20T00:34:54.962Z,16.51
2022-10-20T00:37:22.576Z,16.50
2022-10-20T00:39:49.856Z,16.52
2022-10-20T00:42:19.115Z,16.52
2022-10-20T00:44:50.840Z,16.49
2022-10-20T00:47:21.050Z,16.42
2022-10-20T00:49:50.005Z,16.38
2022-10-20T00:52:20.899Z,16.33
2022-10-20T00:54:49.796Z,16.34
2022-10-20T00:57:17.579Z,16.25
2022-10-20T00:59:45.385Z,16.39
2022-10-20T01:02:15.108Z,16.33
2022-10-20T01:04:43.283Z,16.29
2022-10-20T01:07:10.642Z,16.17
2022-10-20T01:09:39.148Z,16.12
2022-10-20T01:12:23.155Z,16.05
2022-10-20T01:15:02.891Z,15.97
2022-10-20T01:18:05.239Z,15.99
2022-10-20T01:20:50.690Z,15.95
2022-10-20T01:23:26.900Z,15.96
2022-10-20T01:26:24.235Z,15.89
2022-10-20T01:29:03.453Z,15.84
2022-10-20T01:32:04.403Z,15.87
2022-10-20T01:34:50.600Z,15.89
2022-10-20T01:37:34.434Z,15.93
2022-10-20T01:40:43.642Z,15.94
2022-10-20T01:43:14.293Z,15.88
2022-10-20T01:45:45.729Z,15.95
2022-10-20T01:48:16.667Z,15.91
2022-10-20T01:50:47.452Z,15.97
2022-10-20T01:53:18.018Z,16.03
2022-10-20T01:55:45.464Z,16.04
2022-10-20T01:59:03.286Z,16.14
2022-10-20T02:01:58.904Z,16.09
2022-10-20T02:04:46.552Z,16.00
2022-10-20T02:07:25.477Z,15.92
2022-10-20T02:09:58.322Z,16.02
2022-10-20T02:12:29.754Z,15.89
2022-10-20T02:14:58.129Z,15.88
2022-10-20T02:17:25.528Z,15.86
2022-10-20T02:19:53.775Z,15.84
2022-10-20T02:22:22.643Z,15.79
2022-10-20T02:24:53.603Z,15.69
2022-10-20T02:27:37.438Z,15.61
2022-10-20T02:30:11.003Z,15.53
2022-10-20T02:32:41.651Z,15.49
2022-10-20T02:35:14.718Z,15.54
2022-10-20T02:37:42.071Z,15.48
2022-10-20T02:40:10.193Z,15.55
2022-10-20T02:42:38.768Z,15.50
2022-10-20T02:45:07.221Z,15.51
2022-10-20T02:47:35.585Z,15.49
2022-10-20T02:50:03.263Z,15.42
2022-10-20T02:52:30.610Z,15.39
2022-10-20T02:54:57.979Z,15.26
2022-10-20T02:57:25.504Z,15.26
2022-10-20T02:59:53.226Z,15.24
2022-10-20T03:02:20.577Z,15.26
2022-10-20T03:04:50.405Z,15.20
2022-10-20T03:07:17.759Z,15.10
2022-10-20T03:09:45.071Z,15.02
2022-10-20T03:12:12.346Z,15.07
2022-10-20T03:14:40.178Z,15.05
2022-10-20T03:17:07.487Z,15.08
2022-10-20T03:19:34.808Z,15.07
2022-10-20T03:22:02.170Z,15.05
2022-10-20T03:24:29.400Z,15.11
2022-10-20T03:26:56.731Z,15.06
2022-10-20T03:29:24.261Z,15.06
2022-10-20T03:31:51.547Z,15.02
2022-10-20T03:34:18.890Z,14.95
2022-10-20T03:36:46.274Z,14.99
2022-10-20T03:39:13.607Z,14.90
2022-10-20T03:41:41.048Z,14.83
2022-10-20T03:44:10.302Z,14.84
2022-10-20T03:46:37.643Z,14.76
2022-10-20T03:49:05.065Z,14.71
2022-10-20T03:51:32.420Z,14.67
2022-10-20T03:53:59.723Z,14.76
2022-10-20T03:56:27.086Z,14.86
2022-10-20T03:58:54.407Z,14.88
2022-10-20T04:01:27.090Z,14.97
2022-10-20T04:03:54.423Z,14.95
2022-10-20T04:06:21.806Z,14.79
2022-10-20T04:08:49.145Z,14.67
2022-10-20T04:11:16.524Z,14.73
2022-10-20T04:13:43.869Z,14.67
2022-10-20T04:16:11.175Z,14.59
2022-10-20T04:18:38.719Z,14.48
2022-10-20T04:21:06.234Z,14.57
2022-10-20T04:23:33.593Z,14.56
2022-10-20T04:26:07.952Z,14.67
2022-10-20T04:28:35.271Z,14.59
2022-10-20T04:31:02.656Z,14.58
2022-10-20T04:33:30.063Z,14.48
2022-10-20T04:36:03.838Z,14.59
2022-10-20T04:38:31.980Z,14.62
2022-10-20T04:41:04.050Z,14.67
2022-10-20T04:43:33.218Z,14.68
2022-10-20T04:46:07.024Z,14.63
2022-10-20T04:48:37.569Z,14.58
2022-10-20T04:51:11.702Z,14.56
2022-10-20T04:53:39.451Z,14.59
2022-10-20T04:56:08.571Z,14.58
2022-10-20T04:58:36.171Z,14.57
2022-10-20T05:01:06.675Z,14.55
2022-10-20T05:03:35.454Z,14.50
2022-10-20T05:06:12.931Z,14.56
2022-10-20T05:08:41.569Z,14.59
2022-10-20T05:11:10.449Z,14.58
2022-10-20T05:13:38.303Z,14.57
2022-10-20T05:16:06.408Z,14.65
2022-10-20T05:18:34.514Z,14.58
2022-10-20T05:21:19.780Z,14.61
2022-10-20T05:23:47.133Z,14.64
2022-10-20T05:26:16.961Z,14.68
2022-10-20T05:28:46.745Z,14.70
2022-10-20T05:31:15.471Z,14.67
2022-10-20T05:33:48.304Z,14.69
2022-10-20T05:36:21.555Z,14.69
2022-10-20T05:38:50.869Z,14.71
2022-10-20T05:41:21.415Z,14.67
2022-10-20T05:43:50.465Z,14.77
2022-10-20T05:46:18.640Z,14.70
2022-10-20T05:48:46.977Z,14.75
2022-10-20T05:51:19.903Z,14.84
2022-10-20T05:53:48.098Z,14.97
2022-10-20T05:56:18.350Z,15.02
2022-10-20T05:58:47.319Z,15.06
2022-10-20T06:01:19.140Z,15.14
2022-10-20T06:03:53.935Z,15.19
2022-10-20T06:06:23.499Z,15.17
2022-10-20T06:08:51.181Z,15.24
2022-10-20T06:11:19.512Z,15.33
2022-10-20T06:13:48.656Z,15.38
2022-10-20T06:16:24.759Z,15.45
2022-10-20T06:18:52.814Z,15.64
2022-10-20T06:21:33.950Z,15.89
2022-10-20T06:24:04.681Z,16.11
2022-10-20T06:26:35.494Z,16.14
2022-10-20T06:29:05.055Z,16.24
2022-10-20T06:31:41.558Z,16.24
2022-10-20T06:34:13.403Z,16.31
2022-10-20T06:36:42.181Z,16.25
2022-10-20T06:39:13.518Z,16.34
2022-10-20T06:41:40.882Z,16.40
2022-10-20T06:44:18.298Z,16.54
2022-10-20T06:46:45.914Z,16.60
2022-10-20T06:49:14.161Z,16.62
2022-10-20T06:51:41.717Z,16.65
2022-10-20T06:54:09.489Z,16.71
2022-10-20T06:56:37.281Z,16.76
2022-10-20T06:59:04.641Z,16.81
2022-10-20T07:01:34.298Z,16.85
2022-10-20T07:04:05.513Z,16.89
2022-10-20T07:06:35.281Z,16.94
2022-10-20T07:09:08.378Z,17.00
2022-10-20T07:11:36.254Z,17.09
2022-10-20T07:14:04.416Z,17.18
2022-10-20T07:16:34.996Z,17.37
2022-10-20T07:19:03.787Z,17.49
2022-10-20T07:21:35.705Z,17.56
2022-10-20T07:24:06.704Z,17.69
2022-10-20T07:26:36.313Z,17.77
2022-10-20T07:29:04.397Z,18.04
2022-10-20T07:31:45.822Z,18.29
2022-10-20T07:34:31.546Z,18.53
2022-10-20T07:36:59.302Z,18.87
2022-10-20T07:39:27.093Z,19.32
2022-10-20T07:41:54.665Z,19.74
2022-10-20T07:44:22.265Z,20.66
2022-10-20T07:46:50.178Z,21.76
2022-10-20T07:52:05.967Z,22.27
2022-10-20T07:54:33.323Z,21.80
2022-10-20T07:57:00.638Z,22.02
2022-10-20T07:59:29.454Z,22.70
2022-10-20T08:01:59.589Z,23.73
2022-10-20T08:04:27.801Z,24.14
2022-10-20T08:06:55.162Z,24.39
2022-10-20T08:09:22.494Z,24.39
2022-10-20T08:11:52.866Z,25.21
2022-10-20T08:14:23.451Z,25.72
2022-10-20T08:16:51.942Z,26.26
2022-10-20T08:19:25.096Z,25.65
2022-10-20T08:21:52.647Z,24.61
2022-10-20T08:24:20.247Z,23.89
2022-10-20T08:26:47.620Z,23.26
2022-10-20T08:29:14.973Z,22.60
2022-10-20T08:31:43.951Z,22.41
2022-10-20T08:34:11.547Z,22.39
2022-10-20T08:36:38.922Z,22.23
2022-10-20T08:39:06.632Z,22.46
2022-10-20T08:44:32.522Z,22.68
2022-10-20T08:47:02.180Z,22.86
2022-10-20T08:49:32.829Z,23.12
2022-10-20T08:52:01.118Z,23.71
2022-10-20T08:54:28.558Z,23.84
2022-10-20T08:56:55.906Z,24.01
2022-10-20T08:59:30.189Z,24.81
2022-10-20T09:01:57.762Z,25.67
2022-10-20T09:04:47.724Z,25.34
2022-10-20T09:07:36.202Z,24.86
2022-10-20T09:10:35.138Z,24.23
2022-10-20T09:13:26.337Z,23.84
2022-10-20T09:15:58.956Z,23.65
2022-10-20T09:18:26.544Z,23.48
2022-10-20T09:20:57.704Z,24.49
2022-10-20T09:23:47.619Z,24.47
2022-10-20T09:26:37.565Z,24.63
2022-10-20T09:29:20.755Z,23.98
2022-10-20T09:31:50.039Z,24.63
2022-10-20T09:34:27.955Z,24.56
2022-10-20T09:37:04.391Z,23.77
2022-10-20T09:39:55.458Z,22.73
2022-10-20T09:42:29.263Z,22.55
2022-10-20T09:45:00.495Z,22.56
2022-10-20T09:47:28.963Z,22.84
2022-10-20T09:50:06.074Z,22.69
2022-10-20T09:52:47.369Z,22.90
2022-10-20T09:55:23.526Z,23.07
2022-10-20T09:57:51.238Z,23.40
2022-10-20T10:00:38.534Z,23.58
2022-10-20T10:03:22.996Z,23.64
2022-10-20T10:05:54.177Z,23.64
2022-10-20T10:08:26.905Z,23.38
2022-10-20T10:11:05.348Z,23.32
2022-10-20T10:13:40.597Z,23.85
2022-10-20T10:16:10.997Z,23.64
2022-10-20T10:18:39.097Z,23.51
2022-10-20T10:21:09.940Z,23.44
2022-10-20T10:24:12.774Z,23.22
2022-10-20T10:26:45.373Z,23.22
2022-10-20T10:29:19.398Z,23.07
2022-10-20T10:31:57.948Z,23.16
2022-10-20T10:35:02.819Z,22.93
2022-10-20T10:37:49.132Z,23.06
2022-10-20T10:40:20.233Z,22.98
2022-10-20T10:43:06.377Z,23.26
2022-10-20T10:45:52.538Z,23.07
2022-10-20T10:48:50.481Z,22.93
2022-10-20T10:51:35.458Z,23.04
2022-10-20T10:54:11.724Z,23.08
2022-10-20T10:56:54.217Z,22.92
2022-10-20T10:59:29.926Z,23.10
2022-10-20T11:02:15.327Z,22.89
2022-10-20T11:05:02.744Z,22.64
2022-10-20T11:07:39.375Z,22.85
2022-10-20T11:10:30.533Z,23.05
2022-10-20T11:13:26.040Z,23.15
2022-10-20T11:16:13.463Z,23.12
2022-10-20T11:19:02.275Z,23.16
2022-10-20T11:21:40.724Z,23.19
2022-10-20T11:24:13.124Z,22.96
2022-10-20T11:26:49.656Z,23.06
2022-10-20T11:29:31.393Z,22.99
2022-10-20T11:32:23.964Z,23.22
2022-10-20T11:35:06.451Z,23.09
2022-10-20T11:38:07.347Z,23.04
2022-10-20T11:40:46.884Z,23.29
2022-10-20T11:43:27.405Z,23.32
2022-10-20T11:46:04.655Z,23.29
2022-10-20T11:48:46.278Z,23.43
2022-10-20T11:51:31.759Z,23.44
2022-10-20T11:54:23.893Z,23.59
2022-10-20T11:57:12.323Z,23.61
2022-10-20T12:00:03.462Z,23.73
2022-10-20T12:02:49.164Z,23.62
2022-10-20T12:05:35.167Z,23.77
2022-10-20T12:08:29.797Z,23.77
2022-10-20T12:11:30.020Z,23.80
2022-10-20T12:14:06.903Z,23.83
2022-10-20T12:16:52.393Z,23.73
2022-10-20T12:19:25.624Z,23.83
2022-10-20T12:22:06.084Z,23.70
2022-10-20T12:24:35.503Z,23.53
2022-10-20T12:27:08.927Z,23.58
2022-10-20T12:29:36.300Z,23.42
2022-10-20T12:32:24.081Z,23.40
2022-10-20T12:34:57.436Z,23.44
2022-10-20T12:37:24.812Z,23.40
2022-10-20T12:39:54.808Z,23.28
2022-10-20T12:42:28.086Z,23.19
2022-10-20T12:45:02.496Z,23.28
2022-10-20T12:47:32.377Z,23.32
2022-10-20T12:50:02.714Z,23.30
2022-10-20T12:52:34.066Z,23.12
2022-10-20T12:55:18.518Z,23.18
2022-10-20T12:57:46.903Z,23.26
2022-10-20T13:00:20.173Z,23.30
2022-10-20T13:03:31.539Z,23.35
2022-10-20T13:05:59.481Z,23.50
2022-10-20T13:08:30.989Z,23.43
2022-10-20T13:11:33.457Z,23.38
2022-10-20T13:14:07.772Z,23.39
2022-10-20T13:16:35.380Z,23.63
2022-10-20T13:19:08.375Z,23.56
2022-10-20T13:21:35.887Z,23.43
2022-10-20T13:24:11.721Z,23.42
2022-10-20T13:26:48.800Z,23.45
2022-10-20T13:29:22.597Z,23.29
2022-10-20T13:34:52.936Z,23.31
2022-10-20T13:37:35.321Z,23.38
2022-10-20T13:40:25.854Z,23.45
2022-10-20T13:43:05.492Z,23.30
2022-10-20T13:46:01.538Z,23.31
2022-10-20T13:48:49.899Z,23.34
2022-10-20T13:51:23.315Z,23.28
2022-10-20T13:53:55.414Z,23.30
2022-10-20T13:56:45.748Z,23.31
2022-10-20T13:59:18.909Z,23.29
2022-10-20T14:01:49.315Z,23.27
2022-10-20T14:04:35.435Z,23.10
2022-10-20T14:07:09.966Z,23.19
2022-10-20T14:09:40.591Z,23.08
2022-10-20T14:12:23.709Z,22.91
2022-10-20T14:15:01.487Z,22.76
2022-10-20T14:17:29.249Z,22.90
2022-10-20T14:20:19.388Z,22.80
2022-10-20T14:22:47.858Z,22.84
2022-10-20T14:25:15.824Z,23.06
2022-10-20T14:27:43.429Z,22.97
2022-10-20T14:30:18.621Z,22.86
2022-10-20T14:32:47.924Z,22.76
2022-10-20T14:35:32.827Z,22.83
2022-10-20T14:38:08.636Z,22.70
2022-10-20T14:40:37.993Z,22.59
2022-10-20T14:43:21.448Z,22.57
2022-10-20T14:45:54.405Z,22.52
2022-10-20T14:48:22.256Z,22.46
2022-10-20T14:50:50.175Z,22.43
2022-10-20T14:53:25.174Z,22.46
2022-10-20T14:55:53.011Z,22.51
2022-10-20T14:58:54.134Z,22.55
2022-10-20T15:01:23.657Z,22.55
2022-10-20T15:04:04.397Z,22.44
2022-10-20T15:06:32.107Z,22.41
2022-10-20T15:09:00.351Z,22.29
2022-10-20T15:11:28.352Z,22.14
2022-10-20T15:13:59.052Z,22.05
2022-10-20T15:16:45.593Z,21.97
2022-10-20T15:19:24.382Z,21.96
2022-10-20T15:22:09.855Z,21.89
2022-10-20T15:24:38.041Z,21.87
2022-10-20T15:27:15.720Z,21.82
2022-10-20T15:29:52.324Z,21.79
2022-10-20T15:32:19.670Z,21.78
2022-10-20T15:34:46.962Z,21.72
2022-10-20T15:37:14.329Z,21.65
2022-10-20T15:39:41.606Z,21.61
2022-10-20T15:42:11.991Z,21.53
2022-10-20T15:44:39.435Z,21.54
2022-10-20T15:47:08.497Z,21.44
2022-10-20T15:49:35.808Z,21.43
2022-10-20T15:52:03.766Z,21.36
2022-10-20T15:54:31.132Z,21.29
2022-10-20T15:56:58.480Z,21.19
2022-10-20T15:59:25.958Z,21.11
2022-10-20T16:01:53.354Z,21.08
2022-10-20T16:04:23.689Z,21.02
2022-10-20T16:06:57.753Z,21.04
2022-10-20T16:09:26.585Z,20.97
2022-10-20T16:11:54.005Z,20.94
2022-10-20T16:14:21.291Z,20.84
2022-10-20T16:16:48.852Z,20.76
2022-10-20T16:19:16.278Z,20.72
2022-10-20T16:21:43.613Z,20.69
2022-10-20T16:24:11.563Z,20.65
2022-10-20T16:26:38.942Z,20.59
2022-10-20T16:29:06.269Z,20.59
2022-10-20T16:31:33.607Z,20.53
2022-10-20T16:34:00.978Z,20.43
2022-10-20T16:36:28.329Z,20.38
2022-10-20T16:38:58.267Z,20.37
2022-10-20T16:41:25.655Z,20.35
2022-10-20T16:43:55.233Z,20.32
2022-10-20T16:46:24.886Z,20.31
2022-10-20T16:48:52.289Z,20.28
2022-10-20T16:51:19.735Z,20.26
2022-10-20T16:53:47.054Z,20.18
2022-10-20T16:56:16.908Z,20.11
2022-10-20T16:58:47.676Z,20.12
2022-10-20T17:01:17.579Z,20.13
2022-10-20T17:03:49.411Z,20.13
2022-10-20T17:06:19.357Z,20.08
2022-10-20T17:08:46.955Z,20.08
2022-10-20T17:11:16.940Z,20.12
2022-10-20T17:13:44.485Z,20.09
2022-10-20T17:16:15.313Z,20.08
2022-10-20T17:18:43.194Z,20.06
2022-10-20T17:21:11.993Z,19.99
2022-10-20T17:23:42.687Z,20.00
2022-10-20T17:26:17.511Z,20.02
2022-10-20T17:28:45.643Z,19.94
2022-10-20T17:33:47.446Z,19.72
2022-10-20T17:36:15.602Z,19.73
2022-10-20T17:38:43.267Z,19.66
2022-10-20T17:41:13.569Z,19.59
2022-10-20T17:43:40.980Z,19.73
2022-10-20T17:46:14.289Z,19.82
2022-10-20T17:48:44.028Z,19.75
2022-10-20T17:51:17.132Z,19.97
2022-10-20T17:53:48.059Z,20.08
2022-10-20T17:56:18.037Z,19.97
2022-10-20T17:58:47.682Z,19.86
2022-10-20T18:01:27.002Z,19.83
2022-10-20T18:03:56.890Z,19.69
2022-10-20T18:06:29.929Z,19.62
2022-10-20T18:09:02.104Z,19.57
2022-10-20T18:11:32.139Z,19.46
2022-10-20T18:14:00.553Z,19.44
2022-10-20T18:16:30.546Z,19.47
2022-10-20T18:21:28.123Z,19.28
2022-10-20T18:23:56.905Z,19.31
2022-10-20T18:26:25.512Z,19.45
2022-10-20T18:28:52.814Z,19.59
2022-10-20T18:31:25.171Z,19.57
2022-10-20T18:34:02.560Z,19.39
2022-10-20T18:36:38.072Z,19.35
2022-10-20T18:39:08.341Z,19.34
2022-10-20T18:41:39.069Z,19.35
2022-10-20T18:44:10.225Z,19.38
2022-10-20T18:46:38.169Z,19.50
2022-10-20T18:49:07.366Z,19.48
2022-10-20T18:51:36.108Z,19.40
2022-10-20T18:54:05.139Z,19.28
2022-10-20T18:56:32.784Z,19.45
2022-10-20T18:59:03.190Z,19.50
2022-10-20T19:01:33.827Z,19.64
2022-10-20T19:04:02.200Z,19.51
2022-10-20T19:06:39.856Z,19.58
2022-10-20T19:09:14.386Z,19.51
2022-10-20T19:11:42.058Z,19.38
2022-10-20T19:14:11.987Z,19.17
2022-10-20T19:16:41.482Z,18.99
2022-10-20T19:19:09.359Z,19.13
2022-10-20T19:21:37.042Z,19.28
2022-10-20T19:24:07.694Z,19.23
2022-10-20T19:26:38.611Z,19.05
2022-10-20T19:29:09.933Z,18.88
2022-10-20T19:31:53.362Z,18.79
2022-10-20T19:34:27.189Z,18.85
2022-10-20T19:36:55.517Z,18.85
2022-10-20T19:39:27.432Z,18.99
2022-10-20T19:41:57.552Z,18.98
2022-10-20T19:44:26.339Z,18.94
2022-10-20T19:46:53.861Z,18.96
2022-10-20T19:49:23.488Z,18.80
2022-10-20T19:51:51.375Z,18.69
2022-10-20T19:54:19.610Z,18.71
2022-10-20T19:56:47.173Z,18.70
2022-10-20T19:59:33.192Z,18.66
2022-10-20T20:02:01.019Z,18.81
2022-10-20T20:04:28.512Z,18.87
2022-10-20T20:07:01.044Z,18.81
2022-10-20T20:09:30.155Z,18.78
2022-10-20T20:11:58.177Z,18.78
2022-10-20T20:14:26.220Z,18.92
2022-10-20T20:16:53.577Z,18.85
2022-10-20T20:19:20.979Z,18.81
2022-10-20T20:21:48.374Z,18.85
2022-10-20T20:24:15.831Z,18.73
2022-10-20T20:26:44.724Z,18.53
2022-10-20T20:29:13.270Z,18.58
2022-10-20T20:31:40.634Z,18.58
2022-10-20T20:34:08.024Z,18.75
2022-10-20T20:36:35.389Z,18.63
2022-10-20T20:39:03.185Z,18.49
2022-10-20T20:41:31.197Z,18.35
2022-10-20T20:44:01.024Z,18.51
2022-10-20T20:46:31.084Z,18.34
2022-10-20T20:49:00.184Z,18.17
2022-10-20T20:51:29.069Z,18.10
2022-10-20T20:53:56.331Z,18.20
2022-10-20T20:56:26.851Z,18.13
2022-10-20T20:58:55.271Z,18.13
2022-10-20T21:01:24.417Z,18.06
2022-10-20T21:03:56.162Z,18.03
2022-10-20T21:06:33.123Z,18.00
2022-10-20T21:09:01.581Z,18.01
2022-10-20T21:11:29.205Z,17.97
2022-10-20T21:13:58.773Z,18.01
2022-10-20T21:16:31.853Z,18.04
2022-10-20T21:19:04.739Z,17.95
2022-10-20T21:21:38.125Z,17.88
2022-10-20T21:24:06.683Z,17.78
2022-10-20T21:26:34.040Z,17.75
2022-10-20T21:29:01.548Z,17.70
2022-10-20T21:31:30.196Z,17.76
2022-10-20T21:34:03.781Z,17.77
2022-10-20T21:36:34.671Z,17.80
2022-10-20T21:39:05.191Z,17.85
2022-10-20T21:41:35.256Z,17.90
2022-10-20T21:44:04.789Z,17.82
2022-10-20T21:46:42.067Z,17.72
2022-10-20T21:49:20.780Z,17.71
2022-10-20T21:51:52.301Z,17.67
2022-10-20T21:56:55.182Z,17.77
2022-10-20T21:59:30.382Z,17.96
2022-10-20T22:01:59.986Z,17.81
2022-10-20T22:04:30.851Z,17.76
2022-10-20T22:06:59.441Z,17.72
2022-10-20T22:09:27.088Z,17.65
2022-10-20T22:11:56.633Z,17.53
2022-10-20T22:14:24.149Z,17.52
2022-10-20T22:16:51.914Z,17.43
2022-10-20T22:19:22.560Z,17.42
2022-10-20T22:21:51.626Z,17.42
2022-10-20T22:24:20.721Z,17.42
2022-10-20T22:26:51.430Z,17.41
2022-10-20T22:29:21.080Z,17.39
2022-10-20T22:31:48.655Z,17.36
2022-10-20T22:34:16.191Z,17.40
2022-10-20T22:36:44.457Z,17.48
2022-10-20T22:41:44.842Z,17.36
2022-10-20T22:44:12.183Z,17.35
2022-10-20T22:46:39.506Z,17.34
2022-10-20T22:49:06.908Z,17.35
2022-10-20T22:51:34.233Z,17.36
2022-10-20T22:54:01.611Z,17.35
2022-10-20T22:56:28.948Z,17.45
2022-10-20T22:58:56.390Z,17.42
2022-10-20T23:01:24.323Z,17.40
2022-10-20T23:03:52.545Z,17.33
2022-10-20T23:06:23.221Z,17.30
2022-10-20T23:08:53.662Z,17.32
2022-10-20T23:11:21.836Z,17.31
2022-10-20T23:14:05.603Z,17.39
2022-10-20T23:16:33.009Z,17.39
2022-10-20T23:19:00.488Z,17.36
2022-10-20T23:21:27.904Z,17.53
2022-10-20T23:23:55.193Z,17.56
2022-10-20T23:26:22.635Z,17.63
2022-10-20T23:28:50.067Z,17.74
2022-10-20T23:31:21.752Z,17.79
2022-10-20T23:33:54.314Z,17.73
2022-10-20T23:36:22.502Z,17.67
2022-10-20T23:38:50.048Z,17.59
2022-10-20T23:41:17.423Z,17.54
2022-10-20T23:43:44.942Z,17.42
2022-10-20T23:46:12.431Z,17.40
2022-10-20T23:48:40.210Z,17.49
2022-10-20T23:51:08.193Z,17.61
2022-10-20T23:53:35.820Z,17.64
2022-10-20T23:56:03.858Z,17.53
2022-10-20T23:58:31.258Z,17.43
